createdAt,value
2024-01-30T00:01:58.860Z,100607.02
2024-01-30T00:04:25.619Z,100608.58
2024-01-30T00:06:53.532Z,100609.61
2024-01-30T00:09:20.202Z,100613.63
2024-01-30T00:11:47.234Z,100616.08
2024-01-30T00:14:14.438Z,100620.80
2024-01-30T00:16:41.141Z,100618.18
2024-01-30T00:19:08.820Z,100623.23
2024-01-30T00:21:35.491Z,100624.30
2024-01-30T00:24:02.262Z,100622.56
2024-01-30T00:26:28.962Z,100624.30
2024-01-30T00:28:55.606Z,100623.44
2024-01-30T00:31:22.334Z,100624.15
2024-01-30T00:33:49.186Z,100620.85
2024-01-30T00:36:15.862Z,100622.23
2024-01-30T00:38:42.639Z,100622.09
2024-01-30T00:41:09.871Z,100625.06
2024-01-30T00:43:37.150Z,100626.48
2024-01-30T00:46:03.953Z,100623.00
2024-01-30T00:48:30.645Z,100620.41
2024-01-30T00:50:57.313Z,100622.86
2024-01-30T00:53:23.950Z,100628.11
2024-01-30T00:55:50.628Z,100628.85
2024-01-30T00:58:19.740Z,100625.20
2024-01-30T01:00:46.623Z,100622.42
2024-01-30T01:03:14.475Z,100624.18
2024-01-30T01:05:41.575Z,100619.84
2024-01-30T01:08:09.471Z,100619.86
2024-01-30T01:10:36.252Z,100618.15
2024-01-30T01:13:02.995Z,100616.76
2024-01-30T01:15:30.670Z,100614.86
2024-01-30T01:17:58.054Z,100614.00
2024-01-30T01:20:24.825Z,100615.58
2024-01-30T01:22:53.020Z,100611.95
2024-01-30T01:25:20.147Z,100605.00
2024-01-30T01:27:51.929Z,100600.64
2024-01-30T01:30:26.264Z,100601.70
2024-01-30T01:32:56.963Z,100597.19
2024-01-30T01:35:27.022Z,100597.55
2024-01-30T01:37:58.550Z,100598.77
2024-01-30T01:40:26.444Z,100587.79
2024-01-30T01:42:54.938Z,100590.58
2024-01-30T01:45:21.890Z,100590.56
2024-01-30T01:47:52.275Z,100588.11
2024-01-30T01:50:21.066Z,100593.17
2024-01-30T01:52:49.138Z,100591.23
2024-01-30T01:55:18.055Z,100588.27
2024-01-30T01:57:45.567Z,100590.88
2024-01-30T02:00:13.179Z,100588.09
2024-01-30T02:02:40.277Z,100583.73
2024-01-30T02:05:07.323Z,100589.66
2024-01-30T02:07:34.145Z,100586.88
2024-01-30T02:10:00.969Z,100578.88
2024-01-30T02:12:27.614Z,100584.98
2024-01-30T02:14:55.651Z,100584.45
2024-01-30T02:17:23.926Z,100588.11
2024-01-30T02:19:50.725Z,100589.34
2024-01-30T02:22:18.643Z,100589.15
2024-01-30T02:24:45.291Z,100588.98
2024-01-30T02:27:11.905Z,100587.74
2024-01-30T02:29:38.629Z,100585.48
2024-01-30T02:32:06.240Z,100595.26
2024-01-30T02:34:33.115Z,100591.23
2024-01-30T02:37:00.095Z,100593.33
2024-01-30T02:39:26.747Z,100591.59
2024-01-30T02:41:53.399Z,100582.88
2024-01-30T02:44:20.295Z,100579.73
2024-01-30T02:46:46.928Z,100589.66
2024-01-30T02:49:13.707Z,100581.66
2024-01-30T02:51:40.335Z,100575.90
2024-01-30T02:54:06.966Z,100584.07
2024-01-30T02:56:33.648Z,100584.42
2024-01-30T02:59:00.345Z,100582.85
2024-01-30T03:01:27.020Z,100584.27
2024-01-30T03:03:53.965Z,100582.52
2024-01-30T03:06:20.684Z,100583.58
2024-01-30T03:08:47.389Z,100582.19
2024-01-30T03:11:14.086Z,100582.71
2024-01-30T03:13:40.819Z,100580.63
2024-01-30T03:16:08.849Z,100580.81
2024-01-30T03:18:35.521Z,100572.11
2024-01-30T03:21:02.258Z,100579.08
2024-01-30T03:23:28.908Z,100577.52
2024-01-30T03:25:55.781Z,100580.84
2024-01-30T03:28:22.531Z,100583.27
2024-01-30T03:30:49.300Z,100578.06
2024-01-30T03:33:15.937Z,100587.48
2024-01-30T03:35:43.360Z,100585.91
2024-01-30T03:38:10.050Z,100579.63
2024-01-30T03:40:36.658Z,100579.27
2024-01-30T03:43:03.389Z,100578.25
2024-01-30T03:45:30.048Z,100575.83
2024-01-30T03:47:56.800Z,100572.69
2024-01-30T03:50:23.576Z,100573.05
2024-01-30T03:52:50.312Z,100568.52
2024-01-30T03:55:17.108Z,100562.77
2024-01-30T03:57:43.935Z,100562.42
2024-01-30T04:00:11.112Z,100560.86
2024-01-30T04:02:40.540Z,100564.88
2024-01-30T04:05:07.585Z,100566.09
2024-01-30T04:07:34.306Z,100560.17
2024-01-30T04:10:01.025Z,100557.91
2024-01-30T04:12:27.746Z,100558.09
2024-01-30T04:14:54.373Z,100558.09
2024-01-30T04:17:21.295Z,100556.00
2024-01-30T04:19:48.043Z,100557.92
2024-01-30T04:22:14.758Z,100550.95
2024-01-30T04:24:41.389Z,100557.57
2024-01-30T04:27:07.978Z,100557.92
2024-01-30T04:29:34.731Z,100554.10
2024-01-30T04:32:01.437Z,100557.59
2024-01-30T04:34:28.252Z,100559.34
2024-01-30T04:36:55.015Z,100563.35
2024-01-30T04:39:21.688Z,100567.71
2024-01-30T04:41:48.788Z,100565.28
2024-01-30T04:44:15.681Z,100560.23
2024-01-30T04:46:42.381Z,100565.30
2024-01-30T04:49:09.280Z,100565.83
2024-01-30T04:51:36.093Z,100568.44
2024-01-30T04:54:02.981Z,100570.20
2024-01-30T04:56:29.710Z,100569.16
2024-01-30T04:58:56.309Z,100567.08
2024-01-30T05:01:23.134Z,100581.88
2024-01-30T05:03:50.050Z,100581.37
2024-01-30T05:06:29.161Z,100581.73
2024-01-30T05:08:56.031Z,100578.95
2024-01-30T05:11:22.613Z,100572.52
2024-01-30T05:13:49.249Z,100577.56
2024-01-30T05:16:16.181Z,100580.36
2024-01-30T05:18:42.939Z,100579.16
2024-01-30T05:21:11.176Z,100583.15
2024-01-30T05:23:37.939Z,100581.41
2024-01-30T05:26:04.695Z,100580.54
2024-01-30T05:28:32.560Z,100584.04
2024-01-30T05:30:59.462Z,100583.86
2024-01-30T05:33:26.164Z,100581.78
2024-01-30T05:35:54.920Z,100585.11
2024-01-30T05:38:21.621Z,100579.20
2024-01-30T05:40:48.262Z,100585.82
2024-01-30T05:43:15.142Z,100588.27
2024-01-30T05:45:41.890Z,100589.14
2024-01-30T05:48:08.631Z,100593.48
2024-01-30T05:50:35.279Z,100592.97
2024-01-30T05:53:01.897Z,100586.70
2024-01-30T05:55:28.627Z,100584.09
2024-01-30T05:57:55.398Z,100588.79
2024-01-30T06:00:22.034Z,100591.58
2024-01-30T06:02:48.719Z,100592.45
2024-01-30T06:05:15.438Z,100591.92
2024-01-30T06:07:42.241Z,100590.88
2024-01-30T06:10:09.631Z,100593.66
2024-01-30T06:12:36.545Z,100590.71
2024-01-30T06:15:03.603Z,100589.66
2024-01-30T06:17:30.409Z,100590.54
2024-01-30T06:19:57.194Z,100587.05
2024-01-30T06:22:24.134Z,100588.61
2024-01-30T06:24:51.038Z,100588.96
2024-01-30T06:27:20.549Z,100587.92
2024-01-30T06:29:47.194Z,100589.65
2024-01-30T06:32:14.050Z,100584.08
2024-01-30T06:34:42.151Z,100585.12
2024-01-30T06:37:08.963Z,100584.59
2024-01-30T06:39:35.702Z,100580.94
2024-01-30T06:42:02.385Z,100581.63
2024-01-30T06:44:31.346Z,100585.10
2024-01-30T06:46:59.890Z,100584.75
2024-01-30T06:49:26.899Z,100584.05
2024-01-30T06:51:53.857Z,100588.04
2024-01-30T06:54:20.615Z,100584.73
2024-01-30T06:56:47.450Z,100583.16
2024-01-30T06:59:14.205Z,100581.92
2024-01-30T07:01:40.998Z,100584.17
2024-01-30T07:04:07.824Z,100585.37
2024-01-30T07:06:34.524Z,100590.58
2024-01-30T07:09:01.191Z,100589.69
2024-01-30T07:11:29.441Z,100590.11
2024-01-30T07:13:56.511Z,100587.66
2024-01-30T07:16:23.682Z,100585.90
2024-01-30T07:18:50.788Z,100583.70
2024-01-30T07:21:17.735Z,100575.64
2024-01-30T07:23:44.399Z,100581.16
2024-01-30T07:26:11.685Z,100579.56
2024-01-30T07:28:38.868Z,100576.90
2024-01-30T07:31:07.004Z,100572.48
2024-01-30T07:33:33.839Z,100573.42
2024-01-30T07:36:00.812Z,100573.69
2024-01-30T07:38:27.545Z,100577.98
2024-01-30T07:40:54.192Z,100590.45
2024-01-30T07:43:20.945Z,100592.02
2024-01-30T07:45:47.794Z,100585.25
2024-01-30T07:48:14.635Z,100581.41
2024-01-30T07:50:41.822Z,100585.41
2024-01-30T07:53:08.574Z,100591.67
2024-01-30T07:55:35.317Z,100589.71
2024-01-30T07:58:02.264Z,100585.29
2024-01-30T08:00:29.697Z,100584.71
2024-01-30T08:02:56.600Z,100584.48
2024-01-30T08:05:24.508Z,100585.65
2024-01-30T08:07:52.298Z,100589.25
2024-01-30T08:10:19.392Z,100586.02
2024-01-30T08:12:46.169Z,100582.09
2024-01-30T08:15:13.599Z,100582.90
2024-01-30T08:17:40.593Z,100581.41
2024-01-30T08:20:09.013Z,100582.57
2024-01-30T08:22:36.022Z,100579.00
2024-01-30T08:25:03.638Z,100579.42
2024-01-30T08:27:30.467Z,100581.40
2024-01-30T08:29:57.190Z,100582.20
2024-01-30T08:32:24.536Z,100586.65
2024-01-30T08:34:51.316Z,100586.90
2024-01-30T08:37:18.392Z,100585.05
2024-01-30T08:39:45.324Z,100585.13
2024-01-30T08:42:12.104Z,100578.76
2024-01-30T08:44:38.998Z,100579.88
2024-01-30T08:47:05.810Z,100580.31
2024-01-30T08:49:32.529Z,100580.04
2024-01-30T08:51:59.418Z,100580.61
2024-01-30T09:06:36.488Z,100565.45
2024-01-30T09:09:05.987Z,100568.34
2024-01-30T09:11:34.086Z,100567.06
2024-01-30T09:14:02.228Z,100561.73
2024-01-30T09:16:30.380Z,100560.09
2024-01-30T09:18:58.652Z,100561.63
2024-01-30T09:21:27.097Z,100557.87
2024-01-30T09:24:06.875Z,100554.29
2024-01-30T09:26:34.992Z,100557.54
2024-01-30T09:29:03.094Z,100555.52
2024-01-30T09:31:31.463Z,100553.64
2024-01-30T09:33:59.833Z,100551.47
2024-01-30T09:36:28.997Z,100549.77
2024-01-30T09:38:57.192Z,100546.11
2024-01-30T09:41:26.276Z,100540.55
2024-01-30T09:43:57.598Z,100543.79
2024-01-30T09:46:30.803Z,100539.63
2024-01-30T09:48:59.769Z,100541.50
2024-01-30T09:51:29.003Z,100541.92
2024-01-30T09:53:57.981Z,100541.11
2024-01-30T09:56:26.112Z,100545.06
2024-01-30T09:58:54.620Z,100540.75
2024-01-30T10:01:23.731Z,100538.65
2024-01-30T10:03:53.827Z,100535.20
2024-01-30T10:06:25.189Z,100533.67
2024-01-30T10:08:53.410Z,100535.65
2024-01-30T10:11:21.498Z,100533.11
2024-01-30T10:13:50.578Z,100523.04
2024-01-30T10:16:18.748Z,100523.81
2024-01-30T10:18:47.089Z,100518.61
2024-01-30T10:21:15.402Z,100514.65
2024-01-30T10:23:44.834Z,100515.62
2024-01-30T10:26:13.182Z,100513.77
2024-01-30T10:28:41.489Z,100508.77
2024-01-30T10:31:10.146Z,100506.25
2024-01-30T10:33:38.867Z,100501.46
2024-01-30T10:36:07.473Z,100502.29
2024-01-30T10:38:35.734Z,100502.25
2024-01-30T10:41:05.194Z,100501.67
2024-01-30T10:43:37.352Z,100500.54
2024-01-30T10:46:19.013Z,100497.60
2024-01-30T10:49:15.304Z,100495.21
2024-01-30T10:51:44.941Z,100495.42
2024-01-30T10:54:14.108Z,100488.79
2024-01-30T10:56:44.048Z,100489.17
2024-01-30T10:59:14.525Z,100485.51
2024-01-30T11:01:43.330Z,100488.73
2024-01-30T11:04:12.081Z,100489.02
2024-01-30T11:06:44.101Z,100481.73
2024-01-30T11:09:14.040Z,100476.52
2024-01-30T11:12:02.704Z,100471.41
2024-01-30T11:14:32.087Z,100472.88
2024-01-30T11:17:01.249Z,100469.51
2024-01-30T11:19:34.647Z,100465.94
2024-01-30T11:22:03.087Z,100462.30
2024-01-30T11:24:31.211Z,100457.70
2024-01-30T11:27:09.210Z,100457.34
2024-01-30T11:29:38.366Z,100459.98
2024-01-30T11:32:07.076Z,100464.20
2024-01-30T11:34:36.325Z,100464.69
2024-01-30T11:37:13.338Z,100456.36
2024-01-30T11:39:42.841Z,100457.70
2024-01-30T11:42:11.543Z,100455.84
2024-01-30T11:44:39.643Z,100452.19
2024-01-30T11:47:08.938Z,100456.14
2024-01-30T11:49:37.519Z,100449.81
2024-01-30T11:52:06.523Z,100446.98
2024-01-30T11:54:34.964Z,100443.20
2024-01-30T11:57:03.057Z,100442.96
2024-01-30T11:59:31.484Z,100440.55
2024-01-30T12:01:59.712Z,100435.88
2024-01-30T12:04:31.443Z,100433.80
2024-01-30T12:07:03.160Z,100433.80
2024-01-30T12:09:32.502Z,100430.89
2024-01-30T12:12:01.086Z,100428.52
2024-01-30T12:14:29.482Z,100426.48
2024-01-30T12:16:57.733Z,100426.77
2024-01-30T12:19:27.101Z,100426.31
2024-01-30T12:22:00.725Z,100424.73
2024-01-30T12:24:31.451Z,100422.61
2024-01-30T12:27:00.564Z,100417.00
2024-01-30T12:29:31.797Z,100414.20
2024-01-30T12:32:03.129Z,100409.40
2024-01-30T12:34:34.645Z,100404.09
2024-01-30T12:37:05.390Z,100396.09
2024-01-30T12:39:33.575Z,100400.30
2024-01-30T12:42:03.169Z,100396.90
2024-01-30T12:46:09.605Z,100390.30
2024-01-30T12:48:37.833Z,100382.54
2024-01-30T12:51:06.265Z,100387.38
2024-01-30T12:53:34.726Z,100390.10
2024-01-30T12:56:02.896Z,100389.60
2024-01-30T12:58:31.120Z,100385.80
2024-01-30T13:00:59.665Z,100385.54
2024-01-30T13:03:28.328Z,100381.05
2024-01-30T13:05:56.933Z,100384.95
2024-01-30T13:08:25.459Z,100387.05
2024-01-30T13:10:54.149Z,100384.30
2024-01-30T13:13:22.405Z,100379.63
2024-01-30T13:15:50.754Z,100383.46
2024-01-30T13:18:19.073Z,100381.06
2024-01-30T13:20:47.473Z,100382.17
2024-01-30T13:23:15.702Z,100376.05
2024-01-30T13:25:43.798Z,100373.98
2024-01-30T13:28:11.977Z,100371.15
2024-01-30T13:30:40.387Z,100369.30
2024-01-30T13:33:08.553Z,100364.10
2024-01-30T13:35:36.637Z,100364.73
2024-01-30T13:38:05.352Z,100367.27
2024-01-30T13:40:33.767Z,100362.94
2024-01-30T13:43:02.138Z,100365.28
2024-01-30T13:45:30.324Z,100367.14
2024-01-30T13:47:58.763Z,100368.05
2024-01-30T13:50:27.273Z,100365.83
2024-01-30T13:52:55.398Z,100366.10
2024-01-30T13:55:25.004Z,100365.51
2024-01-30T13:57:53.245Z,100359.27
2024-01-30T14:00:23.604Z,100361.08
2024-01-30T14:02:51.723Z,100364.25
2024-01-30T14:05:20.487Z,100365.45
2024-01-30T14:07:49.210Z,100366.80
2024-01-30T14:10:17.839Z,100365.17
2024-01-30T14:12:46.191Z,100363.52
2024-01-30T14:15:23.428Z,100365.59
2024-01-30T14:17:57.781Z,100365.04
2024-01-30T14:20:27.643Z,100368.35
2024-01-30T14:22:57.220Z,100368.58
2024-01-30T14:25:26.335Z,100365.43
2024-01-30T14:27:54.952Z,100365.76
2024-01-30T14:30:23.171Z,100369.21
2024-01-30T14:32:51.797Z,100368.11
2024-01-30T14:35:21.122Z,100364.21
2024-01-30T14:37:49.307Z,100359.84
2024-01-30T14:40:18.910Z,100361.21
2024-01-30T14:42:47.399Z,100362.36
2024-01-30T14:45:16.055Z,100363.99
2024-01-30T14:47:44.825Z,100363.16
2024-01-30T14:50:13.240Z,100364.94
2024-01-30T14:52:42.002Z,100356.73
2024-01-30T14:55:10.791Z,100357.27
2024-01-30T14:57:39.339Z,100357.81
2024-01-30T15:00:08.540Z,100360.27
2024-01-30T15:02:36.991Z,100357.71
2024-01-30T15:05:06.108Z,100354.11
2024-01-30T15:07:39.821Z,100357.33
2024-01-30T15:10:11.293Z,100356.86
2024-01-30T15:12:40.369Z,100360.98
2024-01-30T15:15:10.787Z,100360.02
2024-01-30T15:17:40.527Z,100363.43
2024-01-30T15:20:09.738Z,100369.81
2024-01-30T15:22:38.293Z,100369.85
2024-01-30T15:25:07.300Z,100374.95
2024-01-30T15:27:35.554Z,100377.09
2024-01-30T15:30:04.203Z,100379.05
2024-01-30T15:32:33.025Z,100377.02
2024-01-30T15:35:05.876Z,100372.72
2024-01-30T15:37:35.005Z,100375.42
2024-01-30T15:40:04.669Z,100379.67
2024-01-30T15:42:33.649Z,100379.03
2024-01-30T15:45:02.456Z,100379.42
2024-01-30T15:47:30.818Z,100382.27
2024-01-30T15:49:59.208Z,100386.71
2024-01-30T15:52:27.593Z,100381.70
2024-01-30T15:54:55.865Z,100383.68
2024-01-30T15:57:26.341Z,100380.06
2024-01-30T15:59:55.180Z,100373.98
2024-01-30T16:02:23.634Z,100374.20
2024-01-30T16:04:52.170Z,100375.30
2024-01-30T16:07:20.456Z,100381.45
2024-01-30T16:09:48.725Z,100382.52
2024-01-30T16:12:16.987Z,100386.58
2024-01-30T16:14:45.114Z,100392.89
2024-01-30T16:17:13.325Z,100399.20
2024-01-30T16:19:42.140Z,100401.33
2024-01-30T16:22:10.499Z,100401.17
2024-01-30T16:24:38.776Z,100397.90
2024-01-30T16:27:07.001Z,100397.92
2024-01-30T16:29:36.735Z,100407.06
2024-01-30T16:32:05.254Z,100397.14
2024-01-30T16:34:33.408Z,100390.36
2024-01-30T16:37:01.712Z,100398.45
2024-01-30T16:39:29.912Z,100405.98
2024-01-30T16:41:59.139Z,100408.46
2024-01-30T16:44:27.377Z,100409.01
2024-01-30T16:46:55.672Z,100416.54
2024-01-30T16:49:23.956Z,100422.99
2024-01-30T16:51:52.237Z,100416.90
2024-01-30T16:54:20.404Z,100417.95
2024-01-30T16:56:51.110Z,100416.58
2024-01-30T16:59:19.996Z,100422.38
2024-01-30T17:01:51.161Z,100418.55
2024-01-30T17:04:22.540Z,100419.79
2024-01-30T17:06:51.057Z,100418.06
2024-01-30T17:09:19.356Z,100420.18
2024-01-30T17:11:47.775Z,100417.04
2024-01-30T17:14:18.063Z,100417.75
2024-01-30T17:16:48.678Z,100422.98
2024-01-30T17:19:20.036Z,100421.93
2024-01-30T17:21:48.368Z,100420.92
2024-01-30T17:24:16.697Z,100420.41
2024-01-30T17:26:46.034Z,100422.52
2024-01-30T17:29:16.495Z,100417.63
2024-01-30T17:31:46.043Z,100413.98
2024-01-30T17:34:14.584Z,100410.17
2024-01-30T17:36:42.990Z,100405.13
2024-01-30T17:39:11.170Z,100403.05
2024-01-30T17:41:42.360Z,100400.61
2024-01-30T17:44:12.545Z,100390.86
2024-01-30T17:46:40.667Z,100403.27
2024-01-30T17:49:08.849Z,100405.73
2024-01-30T17:51:40.909Z,100402.60
2024-01-30T17:54:09.694Z,100401.58
2024-01-30T17:56:37.840Z,100402.48
2024-01-30T17:59:06.360Z,100402.17
2024-01-30T18:01:34.880Z,100402.70
2024-01-30T18:04:03.087Z,100396.44
2024-01-30T18:06:31.251Z,100394.38
2024-01-30T18:08:59.325Z,100391.80
2024-01-30T18:11:27.601Z,100387.14
2024-01-30T18:13:57.151Z,100386.83
2024-01-30T18:16:25.889Z,100387.02
2024-01-30T18:18:54.226Z,100388.62
2024-01-30T18:21:22.496Z,100393.34
2024-01-30T18:23:50.533Z,100399.83
2024-01-30T18:26:18.649Z,100408.02
2024-01-30T18:28:48.333Z,100411.01
2024-01-30T18:31:17.640Z,100408.05
2024-01-30T18:33:47.832Z,100411.93
2024-01-30T18:36:16.120Z,100411.43
2024-01-30T18:38:44.239Z,100411.66
2024-01-30T18:41:12.511Z,100413.10
2024-01-30T18:43:40.817Z,100412.58
2024-01-30T18:46:11.288Z,100412.80
2024-01-30T18:48:40.391Z,100410.20
2024-01-30T18:51:08.621Z,100410.42
2024-01-30T18:53:36.733Z,100405.05
2024-01-30T18:56:06.755Z,100397.95
2024-01-30T18:58:35.123Z,100400.63
2024-01-30T19:01:03.741Z,100397.16
2024-01-30T19:03:31.924Z,100402.09
2024-01-30T19:06:01.575Z,100397.92
2024-01-30T19:08:33.881Z,100396.91
2024-01-30T19:11:09.199Z,100387.69
2024-01-30T19:18:31.071Z,100386.48
2024-01-30T19:20:59.220Z,100392.77
2024-01-30T19:23:27.407Z,100390.69
2024-01-30T19:26:03.277Z,100387.73
2024-01-30T19:28:34.548Z,100394.05
2024-01-30T19:31:04.146Z,100396.30
2024-01-30T19:33:32.580Z,100392.83
2024-01-30T19:36:01.936Z,100399.44
2024-01-30T19:38:30.463Z,100394.73
2024-01-30T19:40:59.119Z,100401.00
2024-01-30T19:43:28.609Z,100399.77
2024-01-30T19:45:57.594Z,100398.72
2024-01-30T19:48:26.186Z,100399.77
2024-01-30T19:50:54.496Z,100398.36
2024-01-30T19:53:26.175Z,100406.03
2024-01-30T19:55:54.797Z,100405.17
2024-01-30T19:58:23.162Z,100408.84
2024-01-30T20:00:51.918Z,100409.52
2024-01-30T20:03:20.989Z,100409.48
2024-01-30T20:05:49.592Z,100414.52
2024-01-30T20:08:19.043Z,100417.98
2024-01-30T20:10:49.669Z,100417.26
2024-01-30T20:13:21.820Z,100420.20
2024-01-30T20:15:51.252Z,100421.93
2024-01-30T20:18:19.735Z,100427.15
2024-01-30T20:20:47.942Z,100428.88
2024-01-30T20:23:16.274Z,100426.60
2024-01-30T20:25:44.759Z,100425.70
2024-01-30T20:28:17.652Z,100422.01
2024-01-30T20:30:47.590Z,100419.90
2024-01-30T20:33:16.977Z,100417.27
2024-01-30T20:35:45.295Z,100419.35
2024-01-30T20:38:14.919Z,100422.48
2024-01-30T20:40:43.757Z,100421.79
2024-01-30T20:43:12.030Z,100419.69
2024-01-30T20:45:40.155Z,100427.89
2024-01-30T20:48:09.054Z,100427.02
2024-01-30T20:50:37.466Z,100427.35
2024-01-30T20:53:05.622Z,100418.81
2024-01-30T20:55:34.532Z,100419.52
2024-01-30T20:58:05.165Z,100425.99
2024-01-30T21:00:33.271Z,100424.77
2024-01-30T21:03:01.518Z,100419.73
2024-01-30T21:05:29.826Z,100418.70
2024-01-30T21:07:58.081Z,100420.30
2024-01-30T21:10:26.719Z,100423.29
2024-01-30T21:12:55.141Z,100425.38
2024-01-30T21:15:23.510Z,100418.95
2024-01-30T21:17:53.038Z,100424.36
2024-01-30T21:20:21.369Z,100426.83
2024-01-30T21:22:49.695Z,100427.17
2024-01-30T21:25:18.221Z,100426.14
2024-01-30T21:27:46.510Z,100429.13
2024-01-30T21:30:15.008Z,100428.78
2024-01-30T21:32:43.597Z,100432.30
2024-01-30T21:35:12.624Z,100429.36
2024-01-30T21:37:41.794Z,100429.90
2024-01-30T21:40:12.504Z,100432.89
2024-01-30T21:42:40.724Z,100434.48
2024-01-30T21:45:09.659Z,100428.72
2024-01-30T21:47:38.017Z,100429.42
2024-01-30T21:50:07.156Z,100428.05
2024-01-30T21:52:35.453Z,100429.79
2024-01-30T21:55:03.852Z,100429.98
2024-01-30T21:57:32.049Z,100435.58
2024-01-30T22:00:00.345Z,100437.13
2024-01-30T22:02:28.672Z,100433.47
2024-01-30T22:04:56.917Z,100434.52
2024-01-30T22:07:25.281Z,100430.02
2024-01-30T22:09:53.550Z,100430.04
2024-01-30T22:12:21.780Z,100435.13
2024-01-30T22:14:49.958Z,100430.61
2024-01-30T22:17:18.163Z,100436.39
2024-01-30T22:19:46.375Z,100433.80
2024-01-30T22:22:14.749Z,100436.95
2024-01-30T22:24:43.015Z,100436.98
2024-01-30T22:27:11.105Z,100437.50
2024-01-30T22:29:40.109Z,100434.55
2024-01-30T22:32:08.499Z,100433.69
2024-01-30T22:34:36.748Z,100437.89
2024-01-30T22:37:05.049Z,100442.25
2024-01-30T22:39:33.174Z,100448.55
2024-01-30T22:42:01.310Z,100453.98
2024-01-30T22:44:30.007Z,100455.20
2024-01-30T22:46:58.057Z,100461.65
2024-01-30T22:49:27.310Z,100466.00
2024-01-30T22:51:55.608Z,100467.58
2024-01-30T22:54:23.763Z,100468.45
2024-01-30T22:56:51.937Z,100467.94
2024-01-30T22:59:20.416Z,100464.98
2024-01-30T23:02:56.902Z,100467.44
2024-01-30T23:06:01.190Z,100471.45
2024-01-30T23:08:29.786Z,100475.30
2024-01-30T23:10:58.173Z,100476.86
2024-01-30T23:13:26.405Z,100479.13
2024-01-30T23:15:54.616Z,100479.32
2024-01-30T23:18:22.970Z,100482.80
2024-01-30T23:20:51.178Z,100481.25
2024-01-30T23:23:19.336Z,100484.55
2024-01-30T23:25:47.640Z,100485.25
2024-01-30T23:28:15.974Z,100483.33
2024-01-30T23:30:44.314Z,100487.53
2024-01-30T23:33:13.977Z,100492.94
2024-01-30T23:35:42.177Z,100494.84
2024-01-30T23:38:10.199Z,100494.32
2024-01-30T23:40:39.577Z,100502.50
2024-01-30T23:43:07.965Z,100503.70
2024-01-30T23:45:36.096Z,100498.81
2024-01-30T23:48:04.279Z,100497.92
2024-01-30T23:50:32.379Z,100496.36
2024-01-30T23:53:00.488Z,100494.95
2024-01-30T23:55:28.646Z,100493.74
2024-01-30T23:57:57.020Z,100491.98
